Time;durP1;ratioP1;P1;durP2;ratioP2;P2;SDS_P1;SDS_P2;PMS_P1;PMS_P2;Temp;Humidity;BMP_temperature;BMP_pressure;BME280_temperature;BME280_humidity;BME280_pressure;Samples;Min_cycle;Max_cycle;Signal;HPM_P1;HPM_P2
2022/03/28 00:01:50;;;;;;;60.37;14.17;;;;;;;;;;5057987;28;20456;-69
2022/03/28 00:04:15;;;;;;;59.50;12.20;;;;;;;;;;5059133;28;20292;-69
2022/03/28 00:06:41;;;;;;;47.07;11.47;;;;;;;;;;5058091;28;20035;-69
2022/03/28 00:09:06;;;;;;;80.30;9.00;;;;;;;;;;5057858;28;20031;-69
2022/03/28 00:11:32;;;;;;;55.63;7.83;;;;;;;;;;5056483;28;20051;-69
2022/03/28 00:13:58;;;;;;;66.07;7.30;;;;;;;;;;5058229;28;20411;-69
2022/03/28 00:16:23;;;;;;;48.77;7.53;;;;;;;;;;5056376;28;20396;-69
2022/03/28 00:18:48;;;;;;;72.10;8.20;;;;;;;;;;5057340;28;20070;-71
2022/03/28 00:21:13;;;;;;;39.50;7.47;;;;;;;;;;5057091;28;20028;-71
2022/03/28 00:23:39;;;;;;;111.13;7.20;;;;;;;;;;5057968;28;20021;-71
2022/03/28 00:26:04;;;;;;;82.73;7.43;;;;;;;;;;5056888;28;20270;-68
2022/03/28 00:28:29;;;;;;;73.50;6.67;;;;;;;;;;5060066;28;20120;-71
2022/03/28 00:30:54;;;;;;;50.67;6.23;;;;;;;;;;5057700;28;20036;-71
2022/03/28 00:33:20;;;;;;;52.23;5.13;;;;;;;;;;5056910;28;20374;-71
2022/03/28 00:35:45;;;;;;;31.47;5.50;;;;;;;;;;5056332;28;20139;-71
2022/03/28 00:38:11;;;;;;;23.70;5.13;;;;;;;;;;5057352;28;20098;-69
2022/03/28 00:40:37;;;;;;;35.50;5.80;;;;;;;;;;5057722;28;20437;-69
2022/03/28 00:43:03;;;;;;;46.03;5.03;;;;;;;;;;5056968;28;20344;-69
2022/03/28 00:45:29;;;;;;;24.73;5.23;;;;;;;;;;5057753;28;20607;-71
2022/03/28 00:47:55;;;;;;;27.17;4.73;;;;;;;;;;5056958;28;20116;-71
2022/03/28 00:50:20;;;;;;;25.67;4.37;;;;;;;;;;5057192;28;20142;-69
2022/03/28 00:52:46;;;;;;;27.77;4.93;;;;;;;;;;5060254;28;20497;-71
2022/03/28 00:55:11;;;;;;;41.97;5.33;;;;;;;;;;5057026;28;20029;-69
2022/03/28 00:57:36;;;;;;;63.50;5.10;;;;;;;;;;5057479;28;20421;-69
2022/03/28 01:00:05;;;;;;;63.93;5.57;;;;;;;;;;5057928;28;20020;-69
2022/03/28 01:02:30;;;;;;;82.20;5.90;;;;;;;;;;5057602;28;20024;-67
2022/03/28 01:04:55;;;;;;;55.30;5.87;;;;;;;;;;5062699;22;20052;-66
2022/03/28 01:07:21;;;;;;;54.47;6.80;;;;;;;;;;5062407;28;20115;-66
2022/03/28 01:09:46;;;;;;;38.60;7.00;;;;;;;;;;5062175;28;20044;-66
2022/03/28 01:12:12;;;;;;;76.43;6.77;;;;;;;;;;5065393;28;20056;-66
2022/03/28 01:14:38;;;;;;;89.43;7.37;;;;;;;;;;5062753;28;20581;-66
2022/03/28 01:19:53;;;;;;;54.93;6.37;;;;;;;;;;5062632;28;20522;-66
2022/03/28 01:22:19;;;;;;;47.97;7.03;;;;;;;;;;5066420;28;20047;-66
2022/03/28 01:24:44;;;;;;;57.57;7.00;;;;;;;;;;5066594;28;20028;-67
2022/03/28 01:27:10;;;;;;;57.67;8.23;;;;;;;;;;5063220;28;20029;-66
2022/03/28 01:29:35;;;;;;;40.53;7.20;;;;;;;;;;5065445;28;20102;-66
2022/03/28 01:32:00;;;;;;;32.80;7.13;;;;;;;;;;5065398;28;20605;-66
2022/03/28 01:34:25;;;;;;;54.87;7.60;;;;;;;;;;5060813;28;20063;-66
2022/03/28 01:36:51;;;;;;;51.63;7.00;;;;;;;;;;5063722;28;20028;-67
2022/03/28 01:39:17;;;;;;;39.43;7.63;;;;;;;;;;5064068;28;20059;-67
2022/03/28 01:41:42;;;;;;;153.53;10.17;;;;;;;;;;5067474;28;20028;-68
2022/03/28 01:44:07;;;;;;;120.87;8.63;;;;;;;;;;5065334;28;20099;-67
2022/03/28 01:46:40;;;;;;;140.70;9.60;;;;;;;;;;5064475;28;20036;-68
2022/03/28 01:49:05;;;;;;;67.17;8.10;;;;;;;;;;5059443;28;20025;-67
2022/03/28 01:51:31;;;;;;;234.67;11.70;;;;;;;;;;5063258;28;20116;-67
2022/03/28 01:53:58;;;;;;;84.97;9.27;;;;;;;;;;5062724;28;20027;-67
2022/03/28 01:56:24;;;;;;;117.40;10.00;;;;;;;;;;5061353;28;20117;-67
2022/03/28 01:58:49;;;;;;;66.60;9.40;;;;;;;;;;5063999;28;20099;-67
2022/03/28 02:01:14;;;;;;;54.20;8.57;;;;;;;;;;5061920;28;20028;-67
2022/03/28 02:03:39;;;;;;;41.70;6.93;;;;;;;;;;5059980;28;20040;-67
2022/03/28 02:06:05;;;;;;;89.47;9.13;;;;;;;;;;5059454;28;20060;-67
2022/03/28 02:08:32;;;;;;;146.63;9.40;;;;;;;;;;5052957;28;20044;-67
2022/03/28 02:10:57;;;;;;;127.03;9.37;;;;;;;;;;5055054;28;20020;-68
2022/03/28 02:13:22;;;;;;;146.77;9.73;;;;;;;;;;5056550;28;20032;-67
2022/03/28 02:15:48;;;;;;;127.30;9.53;;;;;;;;;;5060540;28;20032;-67
2022/03/28 02:18:13;;;;;;;160.93;9.57;;;;;;;;;;5060187;28;20527;-67
2022/03/28 02:20:40;;;;;;;180.33;10.47;;;;;;;;;;5060430;28;20024;-68
2022/03/28 02:23:05;;;;;;;120.00;10.57;;;;;;;;;;5046289;28;20021;-67
2022/03/28 02:25:35;;;;;;;159.07;12.40;;;;;;;;;;5064331;28;20097;-67
2022/03/28 02:28:01;;;;;;;71.90;10.00;;;;;;;;;;5064472;28;20476;-67
2022/03/28 02:30:27;;;;;;;137.13;10.63;;;;;;;;;;5067593;28;20057;-67
2022/03/28 02:32:52;;;;;;;63.40;10.20;;;;;;;;;;5063987;28;20099;-67
2022/03/28 02:35:17;;;;;;;95.80;11.23;;;;;;;;;;5063330;28;20528;-67
2022/03/28 02:37:43;;;;;;;61.03;11.23;;;;;;;;;;5064365;28;20035;-68
2022/03/28 02:40:09;;;;;;;151.97;12.43;;;;;;;;;;5063212;28;20051;-68
2022/03/28 02:42:34;;;;;;;108.37;12.37;;;;;;;;;;5063560;28;20058;-67
2022/03/28 02:45:00;;;;;;;76.70;11.80;;;;;;;;;;5063844;28;20039;-67
2022/03/28 02:47:25;;;;;;;79.23;12.33;;;;;;;;;;5063324;28;20089;-67
2022/03/28 02:49:51;;;;;;;124.37;13.57;;;;;;;;;;5063633;28;20016;-67
2022/03/28 02:52:16;;;;;;;120.00;13.13;;;;;;;;;;5063467;28;20040;-67
2022/03/28 02:54:41;;;;;;;137.27;13.90;;;;;;;;;;5062856;28;20027;-67
2022/03/28 02:57:06;;;;;;;61.87;13.20;;;;;;;;;;5064031;28;20020;-67
2022/03/28 02:59:32;;;;;;;87.70;15.87;;;;;;;;;;5063152;28;20037;-67
2022/03/28 03:01:57;;;;;;;89.03;17.20;;;;;;;;;;5063505;28;20468;-67
2022/03/28 03:04:22;;;;;;;102.73;17.23;;;;;;;;;;5066028;28;20060;-67
2022/03/28 03:06:48;;;;;;;107.63;17.70;;;;;;;;;;5062961;28;20035;-67
2022/03/28 03:09:13;;;;;;;82.77;16.50;;;;;;;;;;5063155;28;20681;-68
2022/03/28 03:11:40;;;;;;;100.07;18.63;;;;;;;;;;5063138;28;20112;-67
2022/03/28 03:14:05;;;;;;;98.13;19.00;;;;;;;;;;5062813;28;20488;-67
2022/03/28 03:16:30;;;;;;;112.33;19.17;;;;;;;;;;5063400;28;20095;-68
2022/03/28 03:18:56;;;;;;;98.60;19.10;;;;;;;;;;5062728;28;20024;-67
2022/03/28 03:21:21;;;;;;;99.03;19.10;;;;;;;;;;5063095;28;20055;-67
2022/03/28 03:23:46;;;;;;;207.83;20.97;;;;;;;;;;5063137;28;20498;-67
2022/03/28 03:26:12;;;;;;;156.20;21.60;;;;;;;;;;5062849;28;20340;-67
2022/03/28 03:28:37;;;;;;;115.17;19.23;;;;;;;;;;5062437;28;20027;-67
2022/03/28 03:31:02;;;;;;;128.27;21.73;;;;;;;;;;5062217;28;20047;-67
2022/03/28 03:33:28;;;;;;;131.13;22.40;;;;;;;;;;5062279;28;20039;-67
2022/03/28 03:35:54;;;;;;;105.73;22.07;;;;;;;;;;5063776;28;20380;-67
2022/03/28 03:38:19;;;;;;;138.87;21.10;;;;;;;;;;5065270;28;20020;-67
2022/03/28 03:40:45;;;;;;;200.13;23.17;;;;;;;;;;5062918;28;20037;-67
2022/03/28 03:43:10;;;;;;;143.27;25.07;;;;;;;;;;5062594;28;20031;-67
2022/03/28 03:45:35;;;;;;;143.37;24.93;;;;;;;;;;5062376;28;20365;-68
2022/03/28 03:48:00;;;;;;;168.80;26.00;;;;;;;;;;5065038;28;20040;-67
2022/03/28 03:50:26;;;;;;;143.17;23.70;;;;;;;;;;5061804;28;20126;-68
2022/03/28 03:52:51;;;;;;;153.13;26.70;;;;;;;;;;5062266;28;20037;-67
2022/03/28 03:55:17;;;;;;;155.87;26.97;;;;;;;;;;5061390;28;20020;-68
2022/03/28 03:57:42;;;;;;;163.43;28.23;;;;;;;;;;5062652;28;20021;-67
2022/03/28 04:00:08;;;;;;;191.97;32.80;;;;;;;;;;5061733;28;20512;-67
2022/03/28 04:02:34;;;;;;;140.83;26.63;;;;;;;;;;5061754;28;20090;-68
2022/03/28 04:04:59;;;;;;;193.03;27.77;;;;;;;;;;5061180;28;20044;-67
2022/03/28 04:07:24;;;;;;;198.67;25.40;;;;;;;;;;5061963;28;20028;-67
2022/03/28 04:09:50;;;;;;;162.07;26.77;;;;;;;;;;5061860;28;20103;-67
2022/03/28 04:12:15;;;;;;;198.43;29.13;;;;;;;;;;5061785;28;20222;-68
2022/03/28 04:14:40;;;;;;;181.10;28.57;;;;;;;;;;5061480;28;20024;-67
2022/03/28 04:17:06;;;;;;;173.43;28.23;;;;;;;;;;5061363;28;20052;-68
2022/03/28 04:19:31;;;;;;;188.57;28.00;;;;;;;;;;5061192;28;20024;-68
2022/03/28 04:21:56;;;;;;;241.17;29.40;;;;;;;;;;5061178;28;20027;-67
2022/03/28 04:24:22;;;;;;;196.60;28.13;;;;;;;;;;5061079;28;20031;-68
2022/03/28 04:26:47;;;;;;;210.57;27.67;;;;;;;;;;5061839;28;20050;-67
2022/03/28 04:29:13;;;;;;;141.17;25.27;;;;;;;;;;5060983;28;20022;-68
2022/03/28 04:31:40;;;;;;;160.53;26.20;;;;;;;;;;5061241;28;20159;-67
2022/03/28 04:34:06;;;;;;;171.33;25.87;;;;;;;;;;5061385;28;20017;-68
2022/03/28 04:36:32;;;;;;;166.87;24.43;;;;;;;;;;5060957;28;20107;-68
2022/03/28 04:38:57;;;;;;;129.03;21.33;;;;;;;;;;5062164;28;20150;-68
2022/03/28 04:41:22;;;;;;;147.57;21.47;;;;;;;;;;5064008;28;20701;-68
2022/03/28 04:43:47;;;;;;;146.33;20.83;;;;;;;;;;5061732;28;20663;-67
2022/03/28 04:46:12;;;;;;;125.00;20.97;;;;;;;;;;5060770;28;20412;-68
2022/03/28 04:48:38;;;;;;;141.37;20.83;;;;;;;;;;5061857;28;20028;-68
2022/03/28 04:51:03;;;;;;;125.37;19.80;;;;;;;;;;5060192;28;20029;-67
2022/03/28 04:53:28;;;;;;;155.03;20.57;;;;;;;;;;5061544;28;20024;-67
2022/03/28 04:55:53;;;;;;;186.13;21.97;;;;;;;;;;5066642;28;20043;-67
2022/03/28 04:58:19;;;;;;;164.97;20.60;;;;;;;;;;5060636;28;20150;-67
2022/03/28 05:00:44;;;;;;;136.13;22.37;;;;;;;;;;5060775;28;20025;-68
2022/03/28 05:03:09;;;;;;;118.13;19.30;;;;;;;;;;5061045;28;20025;-67
2022/03/28 05:05:35;;;;;;;121.80;19.73;;;;;;;;;;5060438;28;20089;-68
2022/03/28 05:08:00;;;;;;;137.40;19.00;;;;;;;;;;5061461;28;20029;-67
2022/03/28 05:10:25;;;;;;;208.63;18.97;;;;;;;;;;5060226;28;20061;-68
2022/03/28 05:12:51;;;;;;;180.50;19.10;;;;;;;;;;5060702;28;20044;-67
2022/03/28 05:15:16;;;;;;;121.00;19.30;;;;;;;;;;5060529;28;20093;-67
2022/03/28 05:17:41;;;;;;;135.20;18.07;;;;;;;;;;5060977;28;20025;-68
2022/03/28 05:20:08;;;;;;;125.83;19.77;;;;;;;;;;5062445;28;20100;-68
2022/03/28 05:22:33;;;;;;;115.67;17.33;;;;;;;;;;5061470;28;20722;-68
2022/03/28 05:24:59;;;;;;;111.60;18.53;;;;;;;;;;5060280;28;20037;-68
2022/03/28 05:27:24;;;;;;;159.30;17.00;;;;;;;;;;5061181;28;20135;-68
2022/03/28 05:29:49;;;;;;;141.13;17.93;;;;;;;;;;5060088;28;20052;-68
2022/03/28 05:32:15;;;;;;;132.53;17.50;;;;;;;;;;5059493;28;20080;-68
2022/03/28 05:34:40;;;;;;;124.27;19.17;;;;;;;;;;5058148;28;20025;-69
2022/03/28 05:37:15;;;;;;;131.17;18.40;;;;;;;;;;5060209;28;20044;-68
2022/03/28 05:39:42;;;;;;;145.03;19.07;;;;;;;;;;5060560;28;20111;-68
2022/03/28 05:42:08;;;;;;;131.13;19.17;;;;;;;;;;5061008;28;20020;-68
2022/03/28 05:44:33;;;;;;;178.60;18.30;;;;;;;;;;5061057;28;20025;-68
2022/03/28 05:46:59;;;;;;;117.90;16.00;;;;;;;;;;5063725;28;20020;-69
2022/03/28 05:49:24;;;;;;;107.80;14.60;;;;;;;;;;5060774;28;20043;-68
2022/03/28 05:51:50;;;;;;;99.70;14.00;;;;;;;;;;5061224;28;20025;-68
2022/03/28 05:54:16;;;;;;;89.57;13.20;;;;;;;;;;5060325;28;20020;-69
2022/03/28 05:56:41;;;;;;;93.20;13.83;;;;;;;;;;5048459;28;20077;-68
2022/03/28 05:59:09;;;;;;;82.23;13.47;;;;;;;;;;5064643;28;20024;-68
2022/03/28 06:01:35;;;;;;;131.77;13.97;;;;;;;;;;5064157;28;20640;-68
2022/03/28 06:04:00;;;;;;;117.93;13.77;;;;;;;;;;5064555;28;20032;-68
2022/03/28 06:06:26;;;;;;;96.03;13.60;;;;;;;;;;5064331;28;20088;-68
2022/03/28 06:08:52;;;;;;;98.23;13.13;;;;;;;;;;5064955;28;20020;-68
2022/03/28 06:11:17;;;;;;;81.73;13.80;;;;;;;;;;5064057;28;20586;-69
2022/03/28 06:13:42;;;;;;;77.50;13.57;;;;;;;;;;5064742;28;20070;-68
2022/03/28 06:16:08;;;;;;;76.70;13.37;;;;;;;;;;5064232;28;20024;-68
2022/03/28 06:18:34;;;;;;;69.50;13.07;;;;;;;;;;5064526;28;20035;-68
2022/03/28 06:20:59;;;;;;;89.90;14.73;;;;;;;;;;5064034;28;20025;-69
2022/03/28 06:23:24;;;;;;;98.73;14.40;;;;;;;;;;5063133;28;20028;-68
2022/03/28 06:25:49;;;;;;;68.23;13.80;;;;;;;;;;5060436;28;20021;-68
2022/03/28 06:28:15;;;;;;;74.67;14.30;;;;;;;;;;5057410;28;20033;-68
2022/03/28 06:30:41;;;;;;;67.73;13.13;;;;;;;;;;5064250;28;20059;-68
2022/03/28 06:33:06;;;;;;;66.57;13.83;;;;;;;;;;5064294;28;20020;-68
2022/03/28 06:35:31;;;;;;;67.47;13.67;;;;;;;;;;5064241;28;20035;-68
2022/03/28 06:37:57;;;;;;;80.77;15.40;;;;;;;;;;5064037;28;20044;-68
2022/03/28 06:40:22;;;;;;;72.03;14.47;;;;;;;;;;5064570;28;20069;-68
2022/03/28 06:42:47;;;;;;;100.20;15.00;;;;;;;;;;5064475;28;20110;-68
2022/03/28 06:45:13;;;;;;;103.20;15.40;;;;;;;;;;5063747;28;20488;-68
2022/03/28 06:47:38;;;;;;;73.63;14.60;;;;;;;;;;5063628;28;20036;-68
2022/03/28 06:50:05;;;;;;;71.43;15.37;;;;;;;;;;5072220;28;20673;-68
2022/03/28 06:52:30;;;;;;;120.07;16.60;;;;;;;;;;5064306;28;20476;-68
2022/03/28 06:54:56;;;;;;;82.83;17.47;;;;;;;;;;5063810;28;20031;-68
2022/03/28 06:57:22;;;;;;;86.37;17.00;;;;;;;;;;5067343;28;20036;-69
2022/03/28 06:59:47;;;;;;;89.93;17.80;;;;;;;;;;5064949;28;20033;-69
2022/03/28 07:02:12;;;;;;;91.47;18.70;;;;;;;;;;5063335;28;20020;-69
2022/03/28 07:04:37;;;;;;;75.00;16.50;;;;;;;;;;5062971;28;20040;-69
2022/03/28 07:07:04;;;;;;;79.07;18.83;;;;;;;;;;5064601;28;20550;-69
2022/03/28 07:09:29;;;;;;;64.33;17.40;;;;;;;;;;5063412;28;20558;-69
2022/03/28 07:11:55;;;;;;;71.03;16.93;;;;;;;;;;5080205;28;20020;-69
2022/03/28 07:14:20;;;;;;;61.03;17.00;;;;;;;;;;5063115;28;20043;-69
2022/03/28 07:16:45;;;;;;;60.60;17.77;;;;;;;;;;5063365;28;20048;-69
2022/03/28 07:19:11;;;;;;;58.83;17.80;;;;;;;;;;5063436;28;20622;-69
2022/03/28 07:21:36;;;;;;;64.60;16.73;;;;;;;;;;5063567;28;20081;-69
2022/03/28 07:24:01;;;;;;;53.53;17.53;;;;;;;;;;5064656;28;20412;-69
2022/03/28 07:26:27;;;;;;;56.03;16.93;;;;;;;;;;5063614;28;20033;-69
2022/03/28 07:28:52;;;;;;;57.87;17.77;;;;;;;;;;5063224;28;20017;-69
2022/03/28 07:31:18;;;;;;;52.53;17.13;;;;;;;;;;5062669;28;20075;-69
2022/03/28 07:33:43;;;;;;;53.13;18.13;;;;;;;;;;5076789;28;20028;-69
2022/03/28 07:36:09;;;;;;;42.77;17.20;;;;;;;;;;5066760;28;20125;-69
2022/03/28 07:38:35;;;;;;;46.93;17.27;;;;;;;;;;5072251;28;20060;-69
2022/03/28 07:41:00;;;;;;;49.87;17.87;;;;;;;;;;5062081;28;20021;-69
2022/03/28 07:43:26;;;;;;;49.60;18.67;;;;;;;;;;5072951;28;20099;-69
2022/03/28 07:45:53;;;;;;;53.80;19.90;;;;;;;;;;5068995;28;20133;-69
2022/03/28 07:48:19;;;;;;;46.57;17.50;;;;;;;;;;5062952;28;20089;-68
2022/03/28 07:50:45;;;;;;;45.03;17.20;;;;;;;;;;5062264;28;20028;-68
2022/03/28 07:53:11;;;;;;;38.93;16.17;;;;;;;;;;5063147;28;20031;-68
2022/03/28 07:55:36;;;;;;;42.63;15.93;;;;;;;;;;5062350;28;20029;-68
2022/03/28 07:58:03;;;;;;;44.73;17.40;;;;;;;;;;5062955;28;20020;-69
2022/03/28 08:00:29;;;;;;;42.63;17.03;;;;;;;;;;5062449;28;20021;-69
2022/03/28 08:02:55;;;;;;;46.10;17.53;;;;;;;;;;5062671;28;20074;-69
2022/03/28 08:05:20;;;;;;;37.43;17.17;;;;;;;;;;5062100;28;20609;-69
2022/03/28 08:07:45;;;;;;;39.53;17.53;;;;;;;;;;5082047;28;20051;-69
2022/03/28 08:10:13;;;;;;;41.77;18.20;;;;;;;;;;5064964;28;20036;-69
2022/03/28 08:12:38;;;;;;;37.53;16.97;;;;;;;;;;5062876;28;20032;-69
2022/03/28 08:15:06;;;;;;;34.87;16.60;;;;;;;;;;5061971;28;20475;-69
2022/03/28 08:17:33;;;;;;;35.30;16.43;;;;;;;;;;5062849;28;20048;-69
2022/03/28 08:19:58;;;;;;;33.93;15.53;;;;;;;;;;5061124;28;20425;-69
2022/03/28 08:22:24;;;;;;;34.60;16.07;;;;;;;;;;5062257;28;20031;-69
2022/03/28 08:24:49;;;;;;;35.47;15.97;;;;;;;;;;5055129;28;20025;-69
2022/03/28 08:27:15;;;;;;;35.47;17.27;;;;;;;;;;5061766;28;20081;-69
2022/03/28 08:29:40;;;;;;;34.73;16.97;;;;;;;;;;5062185;28;20032;-69
2022/03/28 08:32:06;;;;;;;36.50;16.97;;;;;;;;;;5061664;28;20610;-69
2022/03/28 08:34:31;;;;;;;36.60;17.50;;;;;;;;;;5061771;28;20095;-69
2022/03/28 08:36:56;;;;;;;36.97;17.00;;;;;;;;;;5065986;28;20019;-69
2022/03/28 08:39:21;;;;;;;45.70;18.73;;;;;;;;;;5061793;28;20031;-69
2022/03/28 08:41:47;;;;;;;41.57;18.93;;;;;;;;;;5063300;28;20103;-69
2022/03/28 08:44:13;;;;;;;37.53;18.20;;;;;;;;;;5080249;28;20031;-69
2022/03/28 08:46:40;;;;;;;44.53;19.30;;;;;;;;;;5061534;28;20111;-69
2022/03/28 08:49:06;;;;;;;41.07;19.10;;;;;;;;;;5064642;28;20051;-69
2022/03/28 08:51:31;;;;;;;41.77;19.07;;;;;;;;;;5052255;28;20067;-69
2022/03/28 08:53:56;;;;;;;41.17;18.90;;;;;;;;;;5061491;28;20028;-69
2022/03/28 08:56:22;;;;;;;39.10;17.57;;;;;;;;;;5061235;28;20029;-69
2022/03/28 08:58:48;;;;;;;42.57;19.03;;;;;;;;;;5061109;28;20024;-69
2022/03/28 09:01:14;;;;;;;39.97;18.97;;;;;;;;;;5061243;28;20044;-69
2022/03/28 09:03:40;;;;;;;36.07;17.50;;;;;;;;;;5061213;28;20064;-69
2022/03/28 09:06:24;;;;;;;36.43;17.60;;;;;;;;;;5061076;28;20690;-69
2022/03/28 09:08:49;;;;;;;34.03;18.10;;;;;;;;;;5061032;28;20115;-69
2022/03/28 09:11:21;;;;;;;33.37;17.30;;;;;;;;;;5061260;28;20166;-69
2022/03/28 09:13:46;;;;;;;33.65;17.25;;;;;;;;;;5061431;28;20035;-69
2022/03/28 09:16:17;;;;;;;34.53;16.40;;;;;;;;;;5061133;28;20020;-69
2022/03/28 09:18:43;;;;;;;43.63;18.65;;;;;;;;;;5060862;28;20025;-69
2022/03/28 09:21:11;;;;;;;35.13;17.43;;;;;;;;;;5061228;28;20036;-69
2022/03/28 09:23:44;;;;;;;39.50;18.53;;;;;;;;;;5060985;28;20027;-69
2022/03/28 09:26:20;;;;;;;34.10;17.37;;;;;;;;;;5061139;28;20022;-69
2022/03/28 09:28:50;;;;;;;39.00;17.73;;;;;;;;;;5061013;28;20086;-69
2022/03/28 09:31:30;;;;;;;36.60;18.20;;;;;;;;;;5059830;28;20742;-69
2022/03/28 09:34:06;;;;;;;34.43;17.00;;;;;;;;;;5065243;28;20471;-69
2022/03/28 09:36:34;;;;;;;36.27;18.13;;;;;;;;;;5063807;28;20021;-69
2022/03/28 09:39:00;;;;;;;37.87;18.27;;;;;;;;;;5064451;28;20024;-69
2022/03/28 09:41:28;;;;;;;34.93;17.73;;;;;;;;;;5065004;28;20052;-69
2022/03/28 09:43:54;;;;;;;32.93;16.40;;;;;;;;;;5064542;28;20024;-69
2022/03/28 09:46:26;;;;;;;34.77;17.03;;;;;;;;;;5062797;28;20027;-69
2022/03/28 09:48:52;;;;;;;34.27;16.97;;;;;;;;;;5045016;28;20044;-69
2022/03/28 09:51:18;;;;;;;30.40;16.17;;;;;;;;;;5050577;28;20703;-69
2022/03/28 09:53:43;;;;;;;34.73;16.60;;;;;;;;;;5044751;28;20147;-69
2022/03/28 09:56:10;;;;;;;30.63;15.80;;;;;;;;;;5063535;28;20140;-69
2022/03/28 09:58:43;;;;;;;29.20;14.70;;;;;;;;;;5065056;28;20032;-69
2022/03/28 10:01:30;;;;;;;28.43;15.10;;;;;;;;;;5055745;28;20033;-69
2022/03/28 10:03:59;;;;;;;28.30;15.40;;;;;;;;;;4981725;28;20045;-69
2022/03/28 10:06:24;;;;;;;27.77;14.97;;;;;;;;;;4977935;28;20051;-69
2022/03/28 10:08:50;;;;;;;27.40;14.70;;;;;;;;;;4971911;28;20096;-69
2022/03/28 10:11:16;;;;;;;31.13;15.43;;;;;;;;;;4977681;28;20031;-69
2022/03/28 10:13:41;;;;;;;28.00;14.47;;;;;;;;;;4973622;28;20022;-69
2022/03/28 10:16:07;;;;;;;33.03;15.80;;;;;;;;;;4971667;28;20041;-69
2022/03/28 10:18:36;;;;;;;30.97;15.63;;;;;;;;;;4981118;28;20026;-69
2022/03/28 10:21:05;;;;;;;33.77;15.53;;;;;;;;;;4980706;28;20034;-69
2022/03/28 10:23:33;;;;;;;43.03;20.57;;;;;;;;;;4977028;28;20038;-69
2022/03/28 10:25:59;;;;;;;46.90;21.93;;;;;;;;;;4976064;28;20034;-69
2022/03/28 10:28:24;;;;;;;42.03;21.27;;;;;;;;;;4979298;28;20705;-69
2022/03/28 10:31:06;;;;;;;42.97;22.03;;;;;;;;;;4978225;28;20026;-69
2022/03/28 10:33:32;;;;;;;;;;;;;;;;;;4975585;28;20026;-69
2022/03/28 10:36:16;;;;;;;40.50;19.65;;;;;;;;;;4978466;28;19913;-69
2022/03/28 10:38:41;;;;;;;38.90;19.53;;;;;;;;;;4974933;28;20028;-69
2022/03/28 10:41:14;;;;;;;41.77;19.80;;;;;;;;;;5028601;28;20115;-69
2022/03/28 10:43:39;;;;;;;35.20;17.27;;;;;;;;;;5054124;28;20028;-69
2022/03/28 10:46:09;;;;;;;35.07;18.33;;;;;;;;;;5057101;28;20028;-69
2022/03/28 10:48:40;;;;;;;30.03;15.90;;;;;;;;;;5058888;28;20077;-69
2022/03/28 10:51:08;;;;;;;28.23;15.40;;;;;;;;;;5062477;28;20146;-69
2022/03/28 10:53:39;;;;;;;26.30;13.87;;;;;;;;;;5062652;28;20021;-69
2022/03/28 10:56:06;;;;;;;26.77;13.55;;;;;;;;;;5062846;28;20029;-69
2022/03/28 10:58:42;;;;;;;26.53;14.87;;;;;;;;;;5063598;28;20028;-69
2022/03/28 11:01:07;;;;;;;25.60;14.10;;;;;;;;;;5061486;28;20024;-69
2022/03/28 11:03:36;;;;;;;25.60;14.07;;;;;;;;;;5063215;28;20034;-69
2022/03/28 11:06:02;;;;;;;25.67;13.90;;;;;;;;;;5063009;28;20465;-69
2022/03/28 11:08:32;;;;;;;23.57;13.57;;;;;;;;;;5062364;28;20100;-69
2022/03/28 11:11:13;;;;;;;29.00;14.50;;;;;;;;;;5062302;28;20044;-69
2022/03/28 11:13:38;;;;;;;24.00;13.47;;;;;;;;;;5062742;28;20078;-69
2022/03/28 11:16:04;;;;;;;22.70;13.10;;;;;;;;;;5062652;28;20279;-69
2022/03/28 11:18:29;;;;;;;25.90;13.77;;;;;;;;;;5063014;28;20382;-69
2022/03/28 11:20:54;;;;;;;30.10;14.33;;;;;;;;;;5061788;28;20090;-69
2022/03/28 11:23:20;;;;;;;24.77;13.93;;;;;;;;;;5062890;28;20040;-69
2022/03/28 11:25:48;;;;;;;22.93;13.17;;;;;;;;;;5061821;28;20032;-69
2022/03/28 11:28:16;;;;;;;22.93;13.10;;;;;;;;;;5053539;28;20047;-69
2022/03/28 11:30:45;;;;;;;24.03;13.30;;;;;;;;;;5059824;28;20043;-70
2022/03/28 11:33:11;;;;;;;24.30;13.13;;;;;;;;;;5062715;28;20035;-69
2022/03/28 11:35:37;;;;;;;21.63;12.63;;;;;;;;;;5062496;28;20028;-69
2022/03/28 11:38:03;;;;;;;23.20;12.80;;;;;;;;;;5062830;28;20085;-69
2022/03/28 11:40:41;;;;;;;22.47;12.90;;;;;;;;;;5062404;28;20104;-69
2022/03/28 11:43:07;;;;;;;21.13;12.52;;;;;;;;;;5065397;28;20526;-69
2022/03/28 11:45:33;;;;;;;22.33;12.63;;;;;;;;;;5062273;28;20134;-69
2022/03/28 11:48:02;;;;;;;21.33;12.80;;;;;;;;;;5061537;28;20055;-69
2022/03/28 11:50:31;;;;;;;20.75;12.55;;;;;;;;;;5062140;28;20028;-69
2022/03/28 11:52:57;;;;;;;22.13;12.47;;;;;;;;;;5062030;28;20055;-69
2022/03/28 11:55:25;;;;;;;19.88;12.13;;;;;;;;;;5062378;28;20101;-70
2022/03/28 12:00:35;;;;;;;22.80;13.23;;;;;;;;;;5055164;28;20135;-70
2022/03/28 12:03:00;;;;;;;24.13;14.10;;;;;;;;;;5062471;28;20095;-70
2022/03/28 12:05:29;;;;;;;27.13;14.95;;;;;;;;;;5063545;28;20567;-69
2022/03/28 12:07:54;;;;;;;26.38;15.15;;;;;;;;;;5063345;28;20021;-70
2022/03/28 12:10:32;;;;;;;27.05;15.30;;;;;;;;;;5062018;28;20024;-70
2022/03/28 12:12:58;;;;;;;26.63;15.77;;;;;;;;;;5062532;28;20780;-70
2022/03/28 12:15:27;;;;;;;28.05;15.82;;;;;;;;;;5062025;28;20024;-70
2022/03/28 12:17:53;;;;;;;28.85;16.83;;;;;;;;;;5062220;28;20126;-70
2022/03/28 12:20:20;;;;;;;32.05;18.42;;;;;;;;;;5061256;28;20028;-70
2022/03/28 12:22:47;;;;;;;30.08;18.15;;;;;;;;;;5061960;28;20033;-70
2022/03/28 12:25:24;;;;;;;29.80;17.27;;;;;;;;;;5062343;28;20024;-70
2022/03/28 12:27:50;;;;;;;26.63;15.13;;;;;;;;;;5062747;28;20137;-70
2022/03/28 12:30:15;;;;;;;30.92;17.58;;;;;;;;;;5051691;28;20032;-69
2022/03/28 12:32:43;;;;;;;33.58;19.10;;;;;;;;;;5063838;28;20360;-69
2022/03/28 12:35:09;;;;;;;37.78;20.75;;;;;;;;;;5063413;28;20067;-70
2022/03/28 12:37:35;;;;;;;34.38;20.45;;;;;;;;;;5064584;28;20036;-69
2022/03/28 12:40:00;;;;;;;36.25;21.42;;;;;;;;;;5065501;28;20029;-70
2022/03/28 12:42:26;;;;;;;36.47;20.70;;;;;;;;;;5082566;28;20882;-70
2022/03/28 12:44:53;;;;;;;37.20;21.73;;;;;;;;;;5063584;28;21827;-70
2022/03/28 12:47:19;;;;;;;44.92;23.90;;;;;;;;;;5062939;28;20535;-70
2022/03/28 12:49:45;;;;;;;39.90;22.92;;;;;;;;;;5063797;28;20028;-69
2022/03/28 12:52:11;;;;;;;39.78;23.67;;;;;;;;;;5063336;28;20029;-69
2022/03/28 12:54:36;;;;;;;39.20;23.48;;;;;;;;;;5063239;28;20082;-69
2022/03/28 12:57:02;;;;;;;42.42;24.30;;;;;;;;;;5064259;28;20031;-69
2022/03/28 12:59:29;;;;;;;41.97;25.75;;;;;;;;;;5063794;28;20086;-69
2022/03/28 13:02:13;;;;;;;39.63;23.77;;;;;;;;;;5064204;28;20066;-70
2022/03/28 13:04:42;;;;;;;41.58;24.48;;;;;;;;;;5062243;28;20068;-70
2022/03/28 13:07:07;;;;;;;38.10;23.83;;;;;;;;;;5061608;28;20032;-70
2022/03/28 13:09:32;;;;;;;43.75;24.65;;;;;;;;;;5067651;28;20433;-69
2022/03/28 13:12:07;;;;;;;39.13;22.80;;;;;;;;;;5063215;28;20400;-69
2022/03/28 13:14:33;;;;;;;42.72;22.67;;;;;;;;;;5063486;28;20028;-68
2022/03/28 13:17:09;;;;;;;42.05;24.67;;;;;;;;;;5064150;28;20321;-68
2022/03/28 13:19:35;;;;;;;37.90;22.15;;;;;;;;;;5063760;28;20786;-68
2022/03/28 13:22:01;;;;;;;37.60;23.08;;;;;;;;;;5062816;28;20029;-68
2022/03/28 13:24:27;;;;;;;37.00;21.75;;;;;;;;;;5060029;28;20031;-68
2022/03/28 13:28:01;;;;;;;37.03;22.13;;;;;;;;;;5063810;28;20085;-68
2022/03/28 13:29:39;;;;;;;36.53;20.70;;;;;;;;;;5063515;28;20024;-68
2022/03/28 13:32:04;;;;;;;36.67;22.15;;;;;;;;;;5060657;28;20028;-68
2022/03/28 13:34:30;;;;;;;33.35;20.88;;;;;;;;;;5061859;28;20020;-68
2022/03/28 13:36:55;;;;;;;31.30;20.23;;;;;;;;;;5061202;28;20028;-68
2022/03/28 13:39:20;;;;;;;32.03;19.55;;;;;;;;;;5060563;28;20036;-68
2022/03/28 13:41:45;;;;;;;26.90;17.70;;;;;;;;;;5060916;28;20516;-68
2022/03/28 13:44:11;;;;;;;25.27;17.02;;;;;;;;;;5062143;28;20036;-67
2022/03/28 13:46:37;;;;;;;27.35;18.08;;;;;;;;;;5063637;28;20036;-68
2022/03/28 13:49:03;;;;;;;26.48;18.00;;;;;;;;;;5063830;28;20029;-68
2022/03/28 13:51:28;;;;;;;26.50;17.73;;;;;;;;;;5063152;28;20519;-68
2022/03/28 13:53:58;;;;;;;30.77;20.58;;;;;;;;;;5062891;28;20066;-68
2022/03/28 13:56:23;;;;;;;26.58;18.42;;;;;;;;;;5062693;28;20374;-68
2022/03/28 13:58:49;;;;;;;25.67;17.75;;;;;;;;;;5060737;28;20031;-68
2022/03/28 14:01:14;;;;;;;26.58;17.17;;;;;;;;;;5059401;28;20033;-68
2022/03/28 14:03:40;;;;;;;24.63;16.23;;;;;;;;;;5062324;28;20107;-68
2022/03/28 14:06:05;;;;;;;27.13;16.83;;;;;;;;;;5061814;28;20646;-68
2022/03/28 14:08:36;;;;;;;25.05;16.75;;;;;;;;;;5063166;28;20044;-68
2022/03/28 14:11:06;;;;;;;20.67;14.77;;;;;;;;;;5063176;28;20021;-68
2022/03/28 14:13:32;;;;;;;20.67;14.20;;;;;;;;;;5060668;28;20685;-68
2022/03/28 14:15:57;;;;;;;18.88;13.88;;;;;;;;;;5059172;28;20024;-68
2022/03/28 14:18:23;;;;;;;22.15;13.75;;;;;;;;;;5061807;28;20420;-68